EBAW

EBAW 030120Z AUTO 22006KT 190V250 9999 // SCT009/// BKN010/// BKN016/// 06/04 Q1007

TAF TAF EBAW 232300Z 2400/2412 25011KT 9999 SCT030

EHWO

EHWO 030125Z AUTO 21008KT 160V260 9999 BKN040 OVC046 06/04 Q1006 BLU

TAF EHWO 020921Z 0210/0222 VRB03KT 8000 SCT008 BKN027 PROB40 TEMPO 0210/0212 4500 BR SCT006 BKN010 BECMG 0212/0215 21005KT FEW020 BKN040 PROB30 TEMPO 0218/0221 4500 -RA SCT015 BKN018

EBBL

EBBL 030125Z AUTO 21006KT 6000 SCT007/// BKN048/// BKN092/// 05/05 Q1007 GRN

TAF EBBL 021541Z 0219/0307 VRB03KT 3000 BR SCT005 BKN015 PROB30 TEMPO 0219/0223 1000 BR SCT003 BKN020 BECMG 0300/0302 22010KT 5000 BR SCT007 BKN010 PROB40 TEMPO 0306/0308 3000 BR

Always consult the official METAR resources.